Time;durP1;ratioP1;P1;durP2;ratioP2;P2;SDS_P1;SDS_P2;PMS_P1;PMS_P2;Temp;Humidity;BMP_temperature;BMP_pressure;BME280_temperature;BME280_humidity;BME280_pressure;Samples;Min_cycle;Max_cycle;Signal;HPM_P1;HPM_P2
2021/04/21 00:01:28;;;;;;;4.57;2.20;;;;;;;;;;5015131;28;20034;-59
2021/04/21 00:03:55;;;;;;;3.72;2.03;;;;;;;;;;5021274;28;20103;-58
2021/04/21 00:06:22;;;;;;;6.20;1.98;;;;;;;;;;5020141;28;20104;-58
2021/04/21 00:08:48;;;;;;;4.93;2.08;;;;;;;;;;5019301;28;20513;-58
2021/04/21 00:11:15;;;;;;;6.93;2.10;;;;;;;;;;5019144;28;20034;-56
2021/04/21 00:13:43;;;;;;;6.32;2.33;;;;;;;;;;5019908;28;20041;-59
2021/04/21 00:16:09;;;;;;;4.18;1.90;;;;;;;;;;5017719;28;20067;-59
2021/04/21 00:18:36;;;;;;;7.65;2.53;;;;;;;;;;5019879;28;20049;-59
2021/04/21 00:21:03;;;;;;;4.60;1.90;;;;;;;;;;5019618;28;20390;-58
2021/04/21 00:23:31;;;;;;;6.28;2.20;;;;;;;;;;5019372;28;20033;-59
2021/04/21 00:25:58;;;;;;;6.93;2.10;;;;;;;;;;5019622;28;20052;-58
2021/04/21 00:28:25;;;;;;;4.32;2.03;;;;;;;;;;5019190;28;20327;-54
2021/04/21 00:30:52;;;;;;;3.80;1.88;;;;;;;;;;5020015;28;20749;-55
2021/04/21 00:33:18;;;;;;;4.75;1.90;;;;;;;;;;5017299;28;20040;-58
2021/04/21 00:35:45;;;;;;;6.88;2.90;;;;;;;;;;5020017;28;20137;-56
2021/04/21 00:38:16;;;;;;;5.47;1.88;;;;;;;;;;5018964;28;20670;-57
2021/04/21 00:40:44;;;;;;;4.10;1.70;;;;;;;;;;5017910;28;20033;-58
2021/04/21 00:43:15;;;;;;;4.05;1.75;;;;;;;;;;5019311;28;20071;-57
2021/04/21 00:45:43;;;;;;;5.80;2.00;;;;;;;;;;5018596;28;21165;-56
2021/04/21 00:48:29;;;;;;;5.63;1.80;;;;;;;;;;5019372;28;20135;-55
2021/04/21 00:50:56;;;;;;;6.63;1.98;;;;;;;;;;5018220;28;20072;-57
2021/04/21 00:53:31;;;;;;;5.30;2.03;;;;;;;;;;5018224;28;20060;-56
2021/04/21 00:56:09;;;;;;;4.45;2.25;;;;;;;;;;5019027;28;20093;-57
2021/04/21 00:58:35;;;;;;;6.13;2.00;;;;;;;;;;5018809;28;20045;-57
2021/04/21 01:01:01;;;;;;;5.00;1.52;;;;;;;;;;5018366;28;20041;-54
2021/04/21 01:03:27;;;;;;;3.78;1.90;;;;;;;;;;5017712;28;20041;-56
2021/04/21 01:06:05;;;;;;;5.43;1.92;;;;;;;;;;5014393;28;20049;-57
2021/04/21 01:08:37;;;;;;;5.50;1.63;;;;;;;;;;5016505;28;20047;-56
2021/04/21 01:11:09;;;;;;;7.40;2.05;;;;;;;;;;5018493;28;20454;-54
2021/04/21 01:13:37;;;;;;;5.72;1.90;;;;;;;;;;5017925;28;20029;-53
2021/04/21 01:16:06;;;;;;;5.82;1.73;;;;;;;;;;5018208;28;21007;-54
2021/04/21 01:18:34;;;;;;;5.07;1.52;;;;;;;;;;5018286;28;20099;-57
2021/04/21 01:21:06;;;;;;;3.42;1.40;;;;;;;;;;5015062;28;20037;-57
2021/04/21 01:23:32;;;;;;;7.82;1.80;;;;;;;;;;5017039;28;20045;-55
2021/04/21 01:26:10;;;;;;;7.47;2.13;;;;;;;;;;5018871;28;20041;-58
2021/04/21 01:28:41;;;;;;;5.93;1.60;;;;;;;;;;5017937;28;20386;-58
2021/04/21 01:31:10;;;;;;;6.72;1.63;;;;;;;;;;5017419;28;20029;-58
2021/04/21 01:33:37;;;;;;;8.15;1.80;;;;;;;;;;5016177;28;20121;-58
2021/04/21 01:36:05;;;;;;;6.75;1.70;;;;;;;;;;5016899;28;20033;-55
2021/04/21 01:38:35;;;;;;;7.25;1.55;;;;;;;;;;5017954;28;20567;-57
2021/04/21 01:41:03;;;;;;;5.40;1.73;;;;;;;;;;5031919;28;20052;-57
2021/04/21 01:43:34;;;;;;;7.18;1.70;;;;;;;;;;5014356;28;20522;-56
2021/04/21 01:46:02;;;;;;;8.80;2.10;;;;;;;;;;5016489;28;20057;-57
2021/04/21 01:48:28;;;;;;;4.65;1.45;;;;;;;;;;5016558;28;20121;-59
2021/04/21 01:50:58;;;;;;;6.72;2.25;;;;;;;;;;5016555;28;20041;-57
2021/04/21 01:53:33;;;;;;;4.43;1.50;;;;;;;;;;5018474;28;20077;-57
2021/04/21 01:56:17;;;;;;;5.70;1.58;;;;;;;;;;5018771;28;20048;-57
2021/04/21 01:58:49;;;;;;;4.63;1.50;;;;;;;;;;5016810;28;20038;-55
2021/04/21 02:01:21;;;;;;;7.45;1.70;;;;;;;;;;5017545;28;20060;-56
2021/04/21 02:03:49;;;;;;;4.88;1.70;;;;;;;;;;5017049;28;20037;-57
2021/04/21 02:06:14;;;;;;;6.40;1.65;;;;;;;;;;5017364;28;20080;-56
2021/04/21 02:08:59;;;;;;;5.97;1.70;;;;;;;;;;5017667;28;20045;-58
2021/04/21 02:11:26;;;;;;;4.90;1.42;;;;;;;;;;5015722;28;20049;-58
2021/04/21 02:14:15;;;;;;;5.95;1.60;;;;;;;;;;5013292;28;20044;-58
2021/04/21 02:16:52;;;;;;;4.82;1.50;;;;;;;;;;5013948;28;20042;-56
2021/04/21 02:19:34;;;;;;;5.55;2.10;;;;;;;;;;5015686;28;20546;-57
2021/04/21 02:22:18;;;;;;;4.95;1.70;;;;;;;;;;5011865;28;20128;-57
2021/04/21 02:25:02;;;;;;;10.32;2.05;;;;;;;;;;5018919;28;20056;-58
2021/04/21 02:27:46;;;;;;;6.97;2.58;;;;;;;;;;5018870;28;20034;-57
2021/04/21 02:30:20;;;;;;;7.47;1.85;;;;;;;;;;5019827;28;20818;-56
2021/04/21 02:33:05;;;;;;;4.50;1.70;;;;;;;;;;5011288;28;20042;-58
2021/04/21 02:35:45;;;;;;;4.38;1.52;;;;;;;;;;5017396;28;20044;-56
2021/04/21 02:38:17;;;;;;;4.97;1.75;;;;;;;;;;5013194;28;20048;-58
2021/04/21 02:41:01;;;;;;;7.25;1.90;;;;;;;;;;5024336;28;20025;-58
2021/04/21 02:43:43;;;;;;;9.20;2.05;;;;;;;;;;5016710;28;20064;-58
2021/04/21 02:46:27;;;;;;;5.10;1.38;;;;;;;;;;5016961;28;20106;-57
2021/04/21 02:48:53;;;;;;;4.97;1.88;;;;;;;;;;5015902;28;20045;-59
2021/04/21 02:51:21;;;;;;;7.90;1.80;;;;;;;;;;5013266;28;20071;-58
2021/04/21 02:53:50;;;;;;;4.18;1.30;;;;;;;;;;5017448;28;20068;-59
2021/04/21 02:56:25;;;;;;;7.93;1.58;;;;;;;;;;5017621;28;20037;-58
2021/04/21 02:58:55;;;;;;;5.60;1.75;;;;;;;;;;5015285;28;20040;-56
2021/04/21 03:01:30;;;;;;;3.40;1.40;;;;;;;;;;5014191;28;20399;-57
2021/04/21 03:03:56;;;;;;;6.60;1.60;;;;;;;;;;5011453;28;20413;-59
2021/04/21 03:06:25;;;;;;;6.85;1.70;;;;;;;;;;5025544;28;20037;-58
2021/04/21 03:09:00;;;;;;;9.40;1.80;;;;;;;;;;5015417;28;20111;-57
2021/04/21 03:11:30;;;;;;;5.85;1.88;;;;;;;;;;5015723;28;20045;-59
2021/04/21 03:14:08;;;;;;;5.25;1.70;;;;;;;;;;5015714;28;20109;-60
2021/04/21 03:16:43;;;;;;;5.32;2.15;;;;;;;;;;5015685;28;20087;-57
2021/04/21 03:19:11;;;;;;;4.68;2.15;;;;;;;;;;5016175;28;21129;-58
2021/04/21 03:21:39;;;;;;;9.30;2.10;;;;;;;;;;5015278;28;20036;-56
2021/04/21 03:24:08;;;;;;;7.65;1.90;;;;;;;;;;5013200;28;20034;-57
2021/04/21 03:26:36;;;;;;;7.38;2.08;;;;;;;;;;5015166;28;20049;-57
2021/04/21 03:29:03;;;;;;;7.47;2.00;;;;;;;;;;5014779;28;20034;-57
2021/04/21 03:31:35;;;;;;;6.72;2.08;;;;;;;;;;5013896;28;20458;-59
2021/04/21 03:34:06;;;;;;;5.40;2.15;;;;;;;;;;5031017;28;20414;-59
2021/04/21 03:36:34;;;;;;;10.27;2.08;;;;;;;;;;5014366;28;20441;-59
2021/04/21 03:39:00;;;;;;;9.52;2.13;;;;;;;;;;5015914;28;20044;-58
2021/04/21 03:41:26;;;;;;;5.65;2.13;;;;;;;;;;5013564;28;20132;-57
2021/04/21 03:43:52;;;;;;;15.02;2.97;;;;;;;;;;5030836;28;20116;-57
2021/04/21 03:46:19;;;;;;;7.00;1.90;;;;;;;;;;5014376;28;20127;-58
2021/04/21 03:48:45;;;;;;;5.43;1.80;;;;;;;;;;5014674;28;20802;-59
2021/04/21 03:51:13;;;;;;;3.70;1.70;;;;;;;;;;5013383;28;20521;-58
2021/04/21 03:53:39;;;;;;;7.10;1.65;;;;;;;;;;5014548;28;20873;-58
2021/04/21 03:56:07;;;;;;;5.60;1.85;;;;;;;;;;5014898;28;20585;-58
2021/04/21 03:58:33;;;;;;;4.20;1.60;;;;;;;;;;5014479;28;20095;-59
2021/04/21 04:01:02;;;;;;;7.00;1.88;;;;;;;;;;5014488;28;20048;-59
2021/04/21 04:03:29;;;;;;;7.75;2.00;;;;;;;;;;5015476;28;20042;-57
2021/04/21 04:05:55;;;;;;;5.40;1.80;;;;;;;;;;5015087;28;20887;-57
2021/04/21 04:08:22;;;;;;;14.70;2.75;;;;;;;;;;5015657;28;20048;-59
2021/04/21 04:10:49;;;;;;;4.60;1.70;;;;;;;;;;5017259;28;20043;-57
2021/04/21 04:13:16;;;;;;;4.72;1.80;;;;;;;;;;5020383;28;20525;-58
2021/04/21 04:15:42;;;;;;;4.90;1.60;;;;;;;;;;5018310;28;20045;-57
2021/04/21 04:18:11;;;;;;;8.30;2.08;;;;;;;;;;5019857;28;20582;-59
2021/04/21 04:20:38;;;;;;;5.70;1.80;;;;;;;;;;5018422;28;20041;-58
2021/04/21 04:23:05;;;;;;;4.63;1.40;;;;;;;;;;5020610;28;20037;-57
2021/04/21 04:25:31;;;;;;;6.60;2.70;;;;;;;;;;5019462;28;20132;-56
2021/04/21 04:27:59;;;;;;;5.75;1.88;;;;;;;;;;5019260;28;20099;-59
2021/04/21 04:30:26;;;;;;;3.83;1.60;;;;;;;;;;5018036;28;20406;-58
2021/04/21 04:32:52;;;;;;;4.90;1.75;;;;;;;;;;5018818;28;20053;-57
2021/04/21 04:35:18;;;;;;;6.00;1.63;;;;;;;;;;5020047;28;20053;-58
2021/04/21 04:37:44;;;;;;;6.13;1.83;;;;;;;;;;5029652;28;20422;-58
2021/04/21 04:40:13;;;;;;;6.07;2.00;;;;;;;;;;5019809;28;20037;-56
2021/04/21 04:42:39;;;;;;;7.80;1.70;;;;;;;;;;5018986;28;20063;-58
2021/04/21 04:45:06;;;;;;;6.30;1.88;;;;;;;;;;5019784;28;20053;-59
2021/04/21 04:47:52;;;;;;;4.43;1.70;;;;;;;;;;5018634;28;20127;-58
2021/04/21 04:50:21;;;;;;;5.90;1.88;;;;;;;;;;5020139;28;20171;-57
2021/04/21 04:52:52;;;;;;;6.03;1.80;;;;;;;;;;5017536;28;20120;-58
2021/04/21 04:55:18;;;;;;;7.65;2.13;;;;;;;;;;5019490;28;20112;-57
2021/04/21 04:57:45;;;;;;;4.63;1.90;;;;;;;;;;5016389;28;20045;-56
2021/04/21 05:00:13;;;;;;;5.00;1.83;;;;;;;;;;5018716;28;20513;-56
2021/04/21 05:02:41;;;;;;;4.30;1.70;;;;;;;;;;5015814;28;20045;-58
2021/04/21 05:05:09;;;;;;;6.88;2.05;;;;;;;;;;5019284;28;20052;-57
2021/04/21 05:07:42;;;;;;;5.63;1.45;;;;;;;;;;5018316;28;20045;-56
2021/04/21 05:10:10;;;;;;;5.17;1.60;;;;;;;;;;5019384;28;20081;-58
2021/04/21 05:12:37;;;;;;;4.82;1.92;;;;;;;;;;5016778;28;20528;-57
2021/04/21 05:15:04;;;;;;;4.25;1.83;;;;;;;;;;5019280;28;20046;-56
2021/04/21 05:17:33;;;;;;;6.00;2.10;;;;;;;;;;5018997;28;20041;-57
2021/04/21 05:20:05;;;;;;;3.55;1.67;;;;;;;;;;5019968;28;20128;-54
2021/04/21 05:22:51;;;;;;;4.45;1.67;;;;;;;;;;5016087;28;20034;-56
2021/04/21 05:25:32;;;;;;;6.85;1.70;;;;;;;;;;5019452;28;20672;-57
2021/04/21 05:28:08;;;;;;;3.63;1.30;;;;;;;;;;5011786;28;20034;-58
2021/04/21 05:30:49;;;;;;;6.50;1.73;;;;;;;;;;5016421;28;20041;-56
2021/04/21 05:33:40;;;;;;;6.28;1.80;;;;;;;;;;5014789;28;20069;-57
2021/04/21 05:36:24;;;;;;;3.97;1.42;;;;;;;;;;5019014;28;20034;-57
2021/04/21 05:38:56;;;;;;;4.75;2.13;;;;;;;;;;5018082;28;20037;-56
2021/04/21 05:41:38;;;;;;;3.80;1.60;;;;;;;;;;5016827;28;20100;-57
2021/04/21 05:44:22;;;;;;;3.72;1.77;;;;;;;;;;5018219;28;20045;-57
2021/04/21 05:47:06;;;;;;;4.80;1.88;;;;;;;;;;5017723;28;20675;-54
2021/04/21 05:49:35;;;;;;;5.03;1.90;;;;;;;;;;5018869;28;20045;-57
2021/04/21 05:52:08;;;;;;;5.53;1.70;;;;;;;;;;5025817;28;20137;-57
2021/04/21 05:54:52;;;;;;;5.38;1.90;;;;;;;;;;5017229;28;20041;-58
2021/04/21 05:57:31;;;;;;;4.07;1.85;;;;;;;;;;5017368;28;20041;-55
2021/04/21 06:00:15;;;;;;;4.22;1.85;;;;;;;;;;5026047;28;20037;-53
2021/04/21 06:02:44;;;;;;;5.20;1.80;;;;;;;;;;5015801;28;20141;-56
2021/04/21 06:05:15;;;;;;;5.13;1.77;;;;;;;;;;5033171;28;22026;-54
2021/04/21 06:07:41;;;;;;;5.22;1.90;;;;;;;;;;5017429;28;20045;-56
2021/04/21 06:10:19;;;;;;;5.90;2.03;;;;;;;;;;5018013;28;20037;-55
2021/04/21 06:12:46;;;;;;;4.20;1.70;;;;;;;;;;5007015;28;20498;-56
2021/04/21 06:15:14;;;;;;;10.35;2.20;;;;;;;;;;5018995;28;20191;-56
2021/04/21 06:17:43;;;;;;;7.78;2.10;;;;;;;;;;5017230;28;20038;-57
2021/04/21 06:20:09;;;;;;;11.15;2.13;;;;;;;;;;5016394;28;20068;-56
2021/04/21 06:22:35;;;;;;;6.15;1.85;;;;;;;;;;5016680;28;20213;-54
2021/04/21 06:25:14;;;;;;;10.73;2.00;;;;;;;;;;5033957;28;20137;-57
2021/04/21 06:27:40;;;;;;;5.15;2.05;;;;;;;;;;5017118;28;20083;-57
2021/04/21 06:30:07;;;;;;;5.97;2.00;;;;;;;;;;5017218;28;20033;-52
2021/04/21 06:32:33;;;;;;;6.93;2.03;;;;;;;;;;5016093;28;20068;-54
2021/04/21 06:35:03;;;;;;;5.15;2.10;;;;;;;;;;5018918;28;20120;-56
2021/04/21 06:37:29;;;;;;;7.15;2.30;;;;;;;;;;5016213;28;20033;-53
2021/04/21 06:40:00;;;;;;;6.38;2.20;;;;;;;;;;5018156;28;20656;-56
2021/04/21 06:42:26;;;;;;;5.88;2.20;;;;;;;;;;5016950;28;20512;-56
2021/04/21 06:44:51;;;;;;;6.35;2.20;;;;;;;;;;5019702;28;20041;-56
2021/04/21 06:47:25;;;;;;;8.43;2.22;;;;;;;;;;5017297;28;20107;-57
2021/04/21 06:50:01;;;;;;;8.43;2.30;;;;;;;;;;5009263;28;20037;-56
2021/04/21 06:52:37;;;;;;;6.45;2.45;;;;;;;;;;5016473;28;20037;-56
2021/04/21 06:55:06;;;;;;;5.97;1.92;;;;;;;;;;5017903;28;20037;-56
2021/04/21 06:57:33;;;;;;;4.95;2.40;;;;;;;;;;5016757;28;20037;-54
2021/04/21 07:00:12;;;;;;;5.07;2.30;;;;;;;;;;5017544;28;20037;-56
2021/04/21 07:02:48;;;;;;;7.70;2.00;;;;;;;;;;5015878;28;20159;-55
2021/04/21 07:05:26;;;;;;;6.28;2.38;;;;;;;;;;5017508;28;20054;-55
2021/04/21 07:08:11;;;;;;;8.93;2.53;;;;;;;;;;5016766;28;22067;-54
2021/04/21 07:10:39;;;;;;;7.97;2.67;;;;;;;;;;5015868;28;20042;-56
2021/04/21 07:13:06;;;;;;;7.60;2.47;;;;;;;;;;5017350;28;20041;-55
2021/04/21 07:15:33;;;;;;;5.40;2.50;;;;;;;;;;5010397;28;20138;-55
2021/04/21 07:18:00;;;;;;;8.80;2.35;;;;;;;;;;5016315;28;20529;-57
2021/04/21 07:20:26;;;;;;;9.68;2.50;;;;;;;;;;5016257;28;20330;-57
2021/04/21 07:22:52;;;;;;;8.60;2.65;;;;;;;;;;5016499;28;20041;-57
2021/04/21 07:25:18;;;;;;;5.18;2.28;;;;;;;;;;5015834;28;20058;-55
2021/04/21 07:27:45;;;;;;;8.88;3.05;;;;;;;;;;5016085;28;20045;-57
2021/04/21 07:30:12;;;;;;;6.57;2.50;;;;;;;;;;5017480;28;20057;-56
2021/04/21 07:32:44;;;;;;;8.43;2.90;;;;;;;;;;5016113;28;20049;-56
2021/04/21 07:35:16;;;;;;;7.40;2.72;;;;;;;;;;5019845;28;20084;-57
2021/04/21 07:37:43;;;;;;;8.05;2.45;;;;;;;;;;5021073;28;20037;-56
2021/04/21 07:40:21;;;;;;;12.18;2.90;;;;;;;;;;5023420;28;20045;-57
2021/04/21 07:42:47;;;;;;;6.00;2.58;;;;;;;;;;5021832;28;20045;-57
2021/04/21 07:45:14;;;;;;;7.15;2.42;;;;;;;;;;5025905;28;20143;-56
2021/04/21 07:47:39;;;;;;;8.10;2.80;;;;;;;;;;5028400;28;20037;-58
2021/04/21 07:50:08;;;;;;;7.20;2.40;;;;;;;;;;5023000;28;20060;-56
2021/04/21 07:52:35;;;;;;;7.13;2.70;;;;;;;;;;5021266;28;20504;-57
2021/04/21 07:55:05;;;;;;;12.13;2.58;;;;;;;;;;5022882;28;20678;-57
2021/04/21 07:57:31;;;;;;;10.20;4.10;;;;;;;;;;5017782;28;20057;-56
2021/04/21 07:59:57;;;;;;;9.40;2.85;;;;;;;;;;5022719;28;20750;-56
2021/04/21 08:02:23;;;;;;;6.75;2.58;;;;;;;;;;5019542;28;20046;-57
2021/04/21 08:04:56;;;;;;;8.30;2.78;;;;;;;;;;5019734;28;20120;-55
2021/04/21 08:07:25;;;;;;;9.07;2.47;;;;;;;;;;5017978;28;20041;-54
2021/04/21 08:09:51;;;;;;;9.07;3.00;;;;;;;;;;5019149;28;20029;-54
2021/04/21 08:12:17;;;;;;;7.53;2.38;;;;;;;;;;5019402;28;20103;-57
2021/04/21 08:14:48;;;;;;;8.93;2.90;;;;;;;;;;5011832;28;20037;-56
2021/04/21 08:17:15;;;;;;;7.50;2.65;;;;;;;;;;5019885;28;20045;-55
2021/04/21 08:19:42;;;;;;;10.40;3.25;;;;;;;;;;5019236;28;20375;-57
2021/04/21 08:22:09;;;;;;;6.95;2.75;;;;;;;;;;5018123;28;20453;-54
2021/04/21 08:24:42;;;;;;;13.80;2.88;;;;;;;;;;5018644;28;20075;-57
2021/04/21 08:27:09;;;;;;;10.80;3.25;;;;;;;;;;5019675;28;20115;-57
2021/04/21 08:29:35;;;;;;;7.22;2.70;;;;;;;;;;5018930;28;20037;-57
2021/04/21 08:32:01;;;;;;;6.97;2.80;;;;;;;;;;5018008;28;20072;-58
2021/04/21 08:34:27;;;;;;;8.93;2.92;;;;;;;;;;5018956;28;20072;-56
2021/04/21 08:36:53;;;;;;;5.05;2.40;;;;;;;;;;5017834;28;20897;-57
2021/04/21 08:39:19;;;;;;;8.00;3.35;;;;;;;;;;5018350;28;20061;-57
2021/04/21 08:41:45;;;;;;;6.82;2.40;;;;;;;;;;5018638;28;20052;-57
2021/04/21 08:44:11;;;;;;;7.22;2.70;;;;;;;;;;5018361;28;20405;-56
2021/04/21 08:46:38;;;;;;;4.57;2.28;;;;;;;;;;5018011;28;20049;-57
2021/04/21 08:49:04;;;;;;;7.43;2.90;;;;;;;;;;5018311;28;20049;-56
2021/04/21 08:51:31;;;;;;;9.45;2.95;;;;;;;;;;5016236;28;20075;-58
2021/04/21 08:54:03;;;;;;;10.38;2.60;;;;;;;;;;5019202;28;20068;-56
2021/04/21 08:56:31;;;;;;;5.90;2.47;;;;;;;;;;5014017;28;20129;-56
2021/04/21 08:58:57;;;;;;;9.05;2.65;;;;;;;;;;5019447;28;20033;-56
2021/04/21 09:01:23;;;;;;;6.78;2.70;;;;;;;;;;5019004;28;20048;-55
2021/04/21 09:03:49;;;;;;;8.98;2.80;;;;;;;;;;5018884;28;20715;-55
2021/04/21 09:06:18;;;;;;;6.40;2.78;;;;;;;;;;5018067;28;20049;-56
2021/04/21 09:08:45;;;;;;;6.85;3.03;;;;;;;;;;5016044;28;20056;-55
2021/04/21 09:11:12;;;;;;;7.80;2.58;;;;;;;;;;5017641;28;20052;-55
2021/04/21 09:13:37;;;;;;;6.32;2.83;;;;;;;;;;5017818;28;20053;-55
2021/04/21 09:16:04;;;;;;;9.32;3.22;;;;;;;;;;5017434;28;20045;-55
2021/04/21 09:18:34;;;;;;;10.57;2.40;;;;;;;;;;5017608;28;20071;-55
2021/04/21 09:21:01;;;;;;;9.60;2.58;;;;;;;;;;5018029;28;20071;-57
2021/04/21 09:23:37;;;;;;;7.68;2.10;;;;;;;;;;5017776;28;20068;-57
2021/04/21 09:26:12;;;;;;;5.50;2.13;;;;;;;;;;5018874;28;20057;-55
2021/04/21 09:28:40;;;;;;;4.85;1.90;;;;;;;;;;5018336;28;20041;-55
2021/04/21 09:31:06;;;;;;;5.32;2.08;;;;;;;;;;5019147;28;20857;-56
2021/04/21 09:33:32;;;;;;;12.40;2.33;;;;;;;;;;5018674;28;20033;-56
2021/04/21 09:35:58;;;;;;;6.53;2.10;;;;;;;;;;5018272;28;20668;-55
2021/04/21 09:38:24;;;;;;;4.28;1.80;;;;;;;;;;5019051;28;20505;-51
2021/04/21 09:40:54;;;;;;;7.22;2.08;;;;;;;;;;5020480;28;20033;-52
2021/04/21 09:43:28;;;;;;;11.70;2.00;;;;;;;;;;5021037;28;20060;-54
2021/04/21 09:45:53;;;;;;;;;;;;;;;;;;5021407;28;20053;-57
2021/04/21 09:48:29;;;;;;;10.48;1.90;;;;;;;;;;5018929;28;19921;-55
2021/04/21 09:50:56;;;;;;;8.70;2.42;;;;;;;;;;5018410;28;20045;-58
2021/04/21 09:53:27;;;;;;;6.28;2.42;;;;;;;;;;5017690;28;20041;-54
2021/04/21 09:56:08;;;;;;;7.07;2.20;;;;;;;;;;5017045;28;20041;-55
2021/04/21 09:58:36;;;;;;;6.03;2.10;;;;;;;;;;5018187;28;20041;-56
2021/04/21 10:01:22;;;;;;;8.75;2.33;;;;;;;;;;5018785;28;20459;-57
2021/04/21 10:04:03;;;;;;;7.32;2.22;;;;;;;;;;5012279;28;20211;-53
2021/04/21 10:06:30;;;;;;;5.63;1.83;;;;;;;;;;5016458;28;20053;-56
2021/04/21 10:08:56;;;;;;;8.25;1.83;;;;;;;;;;5016884;28;20052;-55
2021/04/21 10:11:22;;;;;;;5.00;2.00;;;;;;;;;;5015733;28;20486;-55
2021/04/21 10:13:49;;;;;;;7.50;2.72;;;;;;;;;;5017206;28;20269;-54
2021/04/21 10:16:16;;;;;;;8.90;2.20;;;;;;;;;;5011596;28;20057;-56
2021/04/21 10:18:42;;;;;;;6.38;2.20;;;;;;;;;;5015540;28;20057;-55
2021/04/21 10:21:09;;;;;;;9.95;1.95;;;;;;;;;;5031044;28;20057;-56
2021/04/21 10:23:34;;;;;;;7.28;2.03;;;;;;;;;;5006387;28;20066;-54
2021/04/21 10:26:11;;;;;;;7.40;2.05;;;;;;;;;;5015519;28;20191;-54
2021/04/21 10:28:38;;;;;;;5.75;2.00;;;;;;;;;;5016854;28;20042;-53
2021/04/21 10:31:29;;;;;;;5.05;1.92;;;;;;;;;;5016955;28;20418;-56
2021/04/21 10:33:56;;;;;;;8.90;2.13;;;;;;;;;;5014884;28;20111;-56
2021/04/21 10:36:22;;;;;;;5.93;2.05;;;;;;;;;;5015218;28;20076;-54
2021/04/21 10:38:48;;;;;;;6.35;2.00;;;;;;;;;;5017714;28;20038;-55
2021/04/21 10:41:21;;;;;;;4.55;1.80;;;;;;;;;;5017098;28;20037;-55
2021/04/21 10:43:48;;;;;;;3.63;1.58;;;;;;;;;;5016436;28;20041;-54
2021/04/21 10:46:14;;;;;;;4.57;1.92;;;;;;;;;;5015343;28;20064;-53
2021/04/21 10:48:42;;;;;;;4.20;1.60;;;;;;;;;;5016286;28;20420;-54
2021/04/21 10:51:41;;;;;;;4.25;1.80;;;;;;;;;;5016103;28;20041;-55
2021/04/21 10:54:10;;;;;;;4.85;1.90;;;;;;;;;;4990610;28;20762;-52
2021/04/21 10:56:37;;;;;;;4.18;1.90;;;;;;;;;;5015185;28;20051;-56
2021/04/21 10:59:03;;;;;;;5.43;1.92;;;;;;;;;;5017676;28;20037;-54
2021/04/21 11:01:39;;;;;;;6.13;2.28;;;;;;;;;;5016589;28;20088;-55
2021/04/21 11:04:06;;;;;;;7.22;2.10;;;;;;;;;;5017574;28;20037;-57
2021/04/21 11:06:38;;;;;;;4.53;1.75;;;;;;;;;;5014383;28;20053;-57
2021/04/21 11:09:04;;;;;;;5.15;1.88;;;;;;;;;;5016897;28;20136;-55
2021/04/21 11:11:37;;;;;;;6.88;2.00;;;;;;;;;;5016012;28;20471;-55
2021/04/21 11:14:03;;;;;;;5.65;1.92;;;;;;;;;;5016284;28;20049;-55
2021/04/21 11:16:31;;;;;;;5.07;1.65;;;;;;;;;;5014403;28;20689;-55
2021/04/21 11:19:16;;;;;;;6.32;2.63;;;;;;;;;;5016251;28;20107;-56
2021/04/21 11:21:42;;;;;;;6.57;1.90;;;;;;;;;;5015096;28;20038;-56
2021/04/21 11:24:08;;;;;;;6.53;1.80;;;;;;;;;;5016416;28;20074;-56
2021/04/21 11:26:35;;;;;;;4.82;1.95;;;;;;;;;;5014360;28;20050;-55
2021/04/21 11:29:07;;;;;;;5.35;1.85;;;;;;;;;;5017040;28;20516;-55
2021/04/21 11:31:40;;;;;;;8.63;2.20;;;;;;;;;;5015777;28;20107;-57
2021/04/21 11:34:24;;;;;;;6.03;2.55;;;;;;;;;;5017223;28;20079;-55
2021/04/21 11:36:50;;;;;;;5.65;1.90;;;;;;;;;;5030369;28;20038;-55
2021/04/21 11:39:34;;;;;;;7.45;1.80;;;;;;;;;;5016048;28;20061;-56
2021/04/21 11:42:15;;;;;;;7.05;1.50;;;;;;;;;;5009689;28;20643;-58
2021/04/21 11:44:48;;;;;;;6.15;1.58;;;;;;;;;;5014992;28;20569;-56
2021/04/21 11:47:40;;;;;;;5.20;2.28;;;;;;;;;;5015682;28;20057;-55
2021/04/21 11:50:08;;;;;;;6.85;2.13;;;;;;;;;;4991662;28;20034;-54
2021/04/21 11:52:44;;;;;;;7.22;2.00;;;;;;;;;;5029689;28;20104;-57
2021/04/21 11:55:17;;;;;;;5.93;2.10;;;;;;;;;;5014738;28;20041;-56
2021/04/21 11:57:49;;;;;;;8.77;1.90;;;;;;;;;;5015688;28;20041;-56
2021/04/21 12:00:15;;;;;;;5.13;1.55;;;;;;;;;;5016318;28;20505;-56
2021/04/21 12:02:41;;;;;;;5.72;1.75;;;;;;;;;;5010950;28;20044;-58
2021/04/21 12:05:07;;;;;;;5.00;1.90;;;;;;;;;;5016448;28;20037;-55
2021/04/21 12:07:33;;;;;;;5.85;2.00;;;;;;;;;;5014407;28;20056;-56
2021/04/21 12:09:59;;;;;;;5.90;1.73;;;;;;;;;;5015375;28;20057;-57
2021/04/21 12:12:26;;;;;;;4.75;1.70;;;;;;;;;;5010011;28;20044;-56
2021/04/21 12:15:05;;;;;;;5.53;1.70;;;;;;;;;;5015704;28;20503;-57
2021/04/21 12:17:31;;;;;;;5.70;2.00;;;;;;;;;;5015338;28;20041;-55
2021/04/21 12:19:59;;;;;;;5.88;2.20;;;;;;;;;;5016158;28;20045;-57
2021/04/21 12:22:41;;;;;;;7.57;2.10;;;;;;;;;;5014879;28;20042;-55
2021/04/21 12:25:08;;;;;;;7.47;2.20;;;;;;;;;;5015538;28;20894;-56
2021/04/21 12:27:34;;;;;;;7.32;1.92;;;;;;;;;;5015569;28;20060;-52
2021/04/21 12:30:13;;;;;;;10.27;2.28;;;;;;;;;;5016172;28;20037;-57
2021/04/21 12:32:40;;;;;;;9.90;2.38;;;;;;;;;;5018111;28;20164;-57
2021/04/21 12:35:07;;;;;;;12.05;2.42;;;;;;;;;;5019536;28;20029;-59
2021/04/21 12:37:33;;;;;;;10.52;1.98;;;;;;;;;;5018200;28;20398;-56
2021/04/21 12:39:59;;;;;;;8.23;2.30;;;;;;;;;;5019322;28;20534;-56
2021/04/21 12:42:25;;;;;;;11.45;2.53;;;;;;;;;;5017774;28;20097;-57
2021/04/21 12:44:51;;;;;;;7.97;2.03;;;;;;;;;;5019023;28;20038;-53
2021/04/21 12:47:17;;;;;;;13.85;2.25;;;;;;;;;;5018605;28;20042;-55
2021/04/21 12:49:46;;;;;;;15.93;2.50;;;;;;;;;;5017730;28;20052;-56
2021/04/21 12:52:16;;;;;;;17.25;2.42;;;;;;;;;;5014908;28;20033;-54
2021/04/21 12:54:44;;;;;;;10.63;2.38;;;;;;;;;;5015457;28;20131;-55
2021/04/21 12:57:14;;;;;;;11.23;2.78;;;;;;;;;;5017262;28;20037;-56
2021/04/21 12:59:43;;;;;;;13.57;2.65;;;;;;;;;;5019555;28;20044;-52
2021/04/21 13:02:16;;;;;;;23.50;3.08;;;;;;;;;;5014183;28;20501;-54
2021/04/21 13:04:43;;;;;;;20.10;2.63;;;;;;;;;;5011359;28;20042;-56
2021/04/21 13:07:13;;;;;;;19.05;2.88;;;;;;;;;;5018886;28;20103;-52
2021/04/21 13:09:39;;;;;;;24.67;2.80;;;;;;;;;;5019085;28;20081;-55
2021/04/21 13:12:11;;;;;;;19.38;2.88;;;;;;;;;;5019246;28;20041;-55
2021/04/21 13:14:37;;;;;;;24.73;2.90;;;;;;;;;;5019475;28;20490;-55
2021/04/21 13:17:04;;;;;;;15.27;3.25;;;;;;;;;;5013840;28;20030;-55
2021/04/21 13:19:30;;;;;;;15.70;2.95;;;;;;;;;;5018818;28;20072;-56
2021/04/21 13:21:56;;;;;;;14.55;2.83;;;;;;;;;;5019063;28;20088;-55
2021/04/21 13:24:22;;;;;;;13.13;2.92;;;;;;;;;;5018307;28;20041;-55
2021/04/21 13:26:52;;;;;;;14.48;3.08;;;;;;;;;;5018312;28;20172;-56
2021/04/21 13:29:29;;;;;;;13.93;2.53;;;;;;;;;;5018122;28;20037;-57
2021/04/21 13:32:05;;;;;;;9.07;2.65;;;;;;;;;;5018544;28;20042;-57
2021/04/21 13:34:31;;;;;;;13.05;2.55;;;;;;;;;;5016992;28;20694;-53
2021/04/21 13:36:58;;;;;;;11.93;2.55;;;;;;;;;;5017647;28;20036;-57
2021/04/21 13:39:24;;;;;;;15.40;2.40;;;;;;;;;;5017471;28;20065;-57
2021/04/21 13:41:50;;;;;;;12.30;3.08;;;;;;;;;;5017537;28;20045;-55
2021/04/21 13:44:16;;;;;;;18.05;3.25;;;;;;;;;;5018391;28;20124;-56
2021/04/21 13:46:42;;;;;;;14.75;2.92;;;;;;;;;;5016253;28;20042;-54
2021/04/21 13:49:08;;;;;;;15.95;3.30;;;;;;;;;;5018186;28;20125;-56
2021/04/21 13:51:34;;;;;;;20.13;2.80;;;;;;;;;;5017885;28;20033;-55
2021/04/21 13:54:00;;;;;;;12.80;2.60;;;;;;;;;;5018082;28;20048;-56
2021/04/21 13:56:26;;;;;;;17.15;2.47;;;;;;;;;;5012421;28;20095;-56
2021/04/21 13:58:51;;;;;;;17.95;2.50;;;;;;;;;;5018558;28;20101;-52
2021/04/21 14:01:17;;;;;;;15.98;2.90;;;;;;;;;;5016642;28;20061;-54
2021/04/21 14:03:43;;;;;;;20.35;2.65;;;;;;;;;;5018481;28;20108;-56
2021/04/21 14:06:09;;;;;;;12.23;2.33;;;;;;;;;;5018582;28;20050;-55
2021/04/21 14:08:35;;;;;;;14.93;2.45;;;;;;;;;;5017095;28;20037;-55
2021/04/21 14:11:01;;;;;;;19.77;3.28;;;;;;;;;;5017676;28;20033;-55
2021/04/21 14:13:27;;;;;;;10.25;2.30;;;;;;;;;;5016194;28;20129;-54
2021/04/21 14:15:53;;;;;;;17.48;2.65;;;;;;;;;;5018038;28;20510;-52
2021/04/21 14:18:19;;;;;;;13.90;2.65;;;;;;;;;;5014414;28;20041;-55
2021/04/21 14:20:44;;;;;;;13.90;2.45;;;;;;;;;;5018209;28;20045;-55
2021/04/21 14:23:10;;;;;;;13.25;2.63;;;;;;;;;;5018661;28;20281;-56
2021/04/21 14:25:36;;;;;;;9.45;2.25;;;;;;;;;;5016885;28;20062;-54
2021/04/21 14:28:03;;;;;;;7.65;2.50;;;;;;;;;;5017817;28;20151;-53
2021/04/21 14:30:29;;;;;;;11.27;2.42;;;;;;;;;;5018132;28;20029;-52
2021/04/21 14:32:54;;;;;;;12.88;2.42;;;;;;;;;;5017782;28;20061;-53
2021/04/21 14:35:20;;;;;;;8.48;2.00;;;;;;;;;;5008268;28;20361;-55
2021/04/21 14:37:46;;;;;;;9.63;2.83;;;;;;;;;;5018272;28;20698;-56
2021/04/21 14:40:13;;;;;;;12.18;2.28;;;;;;;;;;5032453;28;20045;-53
2021/04/21 14:42:39;;;;;;;9.63;2.67;;;;;;;;;;5017172;28;20095;-55
2021/04/21 14:45:05;;;;;;;9.75;2.20;;;;;;;;;;5018250;28;20972;-54
2021/04/21 14:47:34;;;;;;;7.25;2.08;;;;;;;;;;5018427;28;20559;-53
2021/04/21 14:50:00;;;;;;;8.00;2.28;;;;;;;;;;5018475;28;20041;-52
2021/04/21 14:52:27;;;;;;;9.82;2.10;;;;;;;;;;5016755;28;20049;-53
2021/04/21 14:54:52;;;;;;;10.88;2.65;;;;;;;;;;5018883;28;20127;-50
2021/04/21 14:57:18;;;;;;;13.35;3.00;;;;;;;;;;5017491;28;20516;-55